createdAt,value
2017-07-09T00:00:24.113Z,19.32
2017-07-09T00:02:53.000Z,19.17
2017-07-09T00:05:21.344Z,18.87
2017-07-09T00:07:49.699Z,18.90
2017-07-09T00:10:18.478Z,18.86
2017-07-09T00:12:46.824Z,18.95
2017-07-09T00:17:50.322Z,18.76
2017-07-09T00:20:18.659Z,18.40
2017-07-09T00:22:47.000Z,18.42
2017-07-09T00:25:15.956Z,18.32
2017-07-09T00:27:44.295Z,18.42
2017-07-09T00:30:12.637Z,18.37
2017-07-09T00:32:41.408Z,18.35
2017-07-09T00:35:09.731Z,18.48
2017-07-09T00:37:38.058Z,18.46
2017-07-09T00:40:07.465Z,18.65
2017-07-09T00:42:35.790Z,18.64
2017-07-09T00:45:04.122Z,18.61
2017-07-09T00:47:33.872Z,18.56
2017-07-09T00:50:02.233Z,18.52
2017-07-09T00:52:30.566Z,18.51
2017-07-09T00:55:00.189Z,18.35
2017-07-09T00:57:28.504Z,18.53
2017-07-09T00:59:56.857Z,18.55
2017-07-09T01:02:25.509Z,18.56
2017-07-09T01:04:53.837Z,18.60
2017-07-09T01:07:22.184Z,18.39
2017-07-09T01:09:51.081Z,18.52
2017-07-09T01:12:19.460Z,18.38
2017-07-09T01:14:48.568Z,18.34
2017-07-09T01:17:18.770Z,18.38
2017-07-09T01:19:47.128Z,18.33
2017-07-09T01:22:15.474Z,18.21
2017-07-09T01:24:44.439Z,18.22
2017-07-09T01:27:12.780Z,18.13
2017-07-09T01:29:41.144Z,17.98
2017-07-09T01:32:10.098Z,18.06
2017-07-09T01:34:38.435Z,18.17
2017-07-09T01:37:06.773Z,18.12
2017-07-09T01:39:35.384Z,18.01
2017-07-09T01:42:03.732Z,17.89
2017-07-09T01:44:32.075Z,17.83
2017-07-09T01:47:00.820Z,17.88
2017-07-09T01:49:29.154Z,17.84
2017-07-09T01:51:57.477Z,17.77
2017-07-09T01:54:26.426Z,17.85
2017-07-09T01:56:54.750Z,17.83
2017-07-09T01:59:23.079Z,17.71
2017-07-09T02:01:52.474Z,17.63
2017-07-09T02:04:20.827Z,17.72
2017-07-09T02:06:49.156Z,17.77
2017-07-09T02:09:18.122Z,17.82
2017-07-09T02:11:46.466Z,17.73
2017-07-09T02:14:14.802Z,17.78
2017-07-09T02:16:43.989Z,17.75
2017-07-09T02:19:12.551Z,17.71
2017-07-09T02:21:40.922Z,17.59
2017-07-09T02:24:09.654Z,17.54
2017-07-09T02:26:37.996Z,17.58
2017-07-09T02:29:06.345Z,17.55
2017-07-09T02:31:34.995Z,17.47
2017-07-09T02:34:03.361Z,17.38
2017-07-09T02:36:31.717Z,17.42
2017-07-09T02:39:00.670Z,17.41
2017-07-09T02:41:29.005Z,17.42
2017-07-09T02:43:57.335Z,17.37
2017-07-09T02:46:26.193Z,17.38
2017-07-09T02:48:54.518Z,17.43
2017-07-09T02:51:22.868Z,17.41
2017-07-09T02:53:51.558Z,17.38
2017-07-09T02:56:19.897Z,17.46
2017-07-09T02:58:48.230Z,17.39
2017-07-09T03:01:17.309Z,17.39
2017-07-09T03:03:45.643Z,17.38
2017-07-09T03:06:13.985Z,17.32
2017-07-09T03:08:42.736Z,17.21
2017-07-09T03:11:11.074Z,17.15
2017-07-09T03:13:39.430Z,17.14
2017-07-09T03:16:08.163Z,17.10
2017-07-09T03:18:36.543Z,16.95
2017-07-09T03:21:04.902Z,16.92
2017-07-09T03:23:33.904Z,16.87
2017-07-09T03:26:03.016Z,16.92
2017-07-09T03:28:31.323Z,16.83
2017-07-09T03:31:00.284Z,16.86
2017-07-09T03:33:28.623Z,16.83
2017-07-09T03:35:56.982Z,16.88
2017-07-09T03:38:25.725Z,16.90
2017-07-09T03:40:54.082Z,16.89
2017-07-09T03:43:22.422Z,16.90
2017-07-09T03:45:51.545Z,16.87
2017-07-09T03:48:19.882Z,16.98
2017-07-09T03:50:48.209Z,16.93
2017-07-09T03:53:16.847Z,16.79
2017-07-09T03:55:45.238Z,16.54
2017-07-09T03:58:13.614Z,16.63
2017-07-09T04:00:42.478Z,16.48
2017-07-09T04:03:10.823Z,16.45
2017-07-09T04:05:39.175Z,16.48
2017-07-09T04:08:08.238Z,16.45
2017-07-09T04:10:36.582Z,16.59
2017-07-09T04:13:04.940Z,16.87
2017-07-09T04:15:33.586Z,16.87
2017-07-09T04:18:01.914Z,17.01
2017-07-09T04:20:30.241Z,17.08
2017-07-09T04:22:59.018Z,17.14
2017-07-09T04:25:27.383Z,17.13
2017-07-09T04:27:56.497Z,17.11
2017-07-09T04:30:25.345Z,17.08
2017-07-09T04:32:53.685Z,17.14
2017-07-09T04:35:22.024Z,17.11
2017-07-09T04:37:50.924Z,16.90
2017-07-09T04:40:19.266Z,17.03
2017-07-09T04:42:47.625Z,17.12
2017-07-09T04:45:16.266Z,17.28
2017-07-09T04:47:45.361Z,17.39
2017-07-09T04:50:14.483Z,17.52
2017-07-09T04:52:43.168Z,17.65
2017-07-09T04:55:11.494Z,17.82
2017-07-09T04:57:39.855Z,17.78
2017-07-09T05:00:08.695Z,17.76
2017-07-09T05:02:37.030Z,17.74
2017-07-09T05:05:05.401Z,17.92
2017-07-09T05:07:34.337Z,17.90
2017-07-09T05:10:02.683Z,17.94
2017-07-09T05:12:31.028Z,18.01
2017-07-09T05:14:59.996Z,18.20
2017-07-09T05:17:28.330Z,18.31
2017-07-09T05:19:56.676Z,18.36
2017-07-09T05:22:25.515Z,18.42
2017-07-09T05:24:53.860Z,18.32
2017-07-09T05:27:22.191Z,18.33
2017-07-09T05:29:51.112Z,18.27
2017-07-09T05:32:19.460Z,18.33
2017-07-09T05:34:47.852Z,18.53
2017-07-09T05:37:16.699Z,18.69
2017-07-09T05:39:45.033Z,18.72
2017-07-09T05:42:13.364Z,18.62
2017-07-09T05:44:42.056Z,18.69
2017-07-09T05:47:10.392Z,18.79
2017-07-09T05:49:38.715Z,18.92
2017-07-09T05:52:07.434Z,19.21
2017-07-09T05:54:35.775Z,19.15
2017-07-09T05:57:04.105Z,19.38
2017-07-09T05:59:32.911Z,19.26
2017-07-09T06:02:01.232Z,19.39
2017-07-09T06:04:29.563Z,19.46
2017-07-09T06:06:58.173Z,19.41
2017-07-09T06:09:26.509Z,19.57
2017-07-09T06:11:54.845Z,19.67
2017-07-09T06:14:23.560Z,19.91
2017-07-09T06:16:51.886Z,19.71
2017-07-09T06:19:20.232Z,19.70
2017-07-09T06:21:49.219Z,19.68
2017-07-09T06:24:17.565Z,19.82
2017-07-09T06:26:45.902Z,20.00
2017-07-09T06:29:14.601Z,20.11
2017-07-09T06:31:42.956Z,20.23
2017-07-09T06:34:11.295Z,20.22
2017-07-09T06:36:40.723Z,20.15
2017-07-09T06:39:09.060Z,20.40
2017-07-09T06:41:37.394Z,20.12
2017-07-09T06:44:06.572Z,20.10
2017-07-09T06:46:34.919Z,20.22
2017-07-09T06:49:03.289Z,20.43
2017-07-09T06:51:32.013Z,20.54
2017-07-09T06:54:00.391Z,20.48
2017-07-09T06:56:29.497Z,20.44
2017-07-09T06:58:58.108Z,20.37
2017-07-09T07:01:26.463Z,20.35
2017-07-09T07:03:54.793Z,20.73
2017-07-09T07:06:23.932Z,20.63
2017-07-09T07:08:52.266Z,20.45
2017-07-09T07:11:20.620Z,20.46
2017-07-09T07:13:49.582Z,20.73
2017-07-09T07:16:17.913Z,20.70
2017-07-09T07:18:46.234Z,20.85
2017-07-09T07:21:15.736Z,20.85
2017-07-09T07:23:44.835Z,21.05
2017-07-09T07:26:13.938Z,21.20
2017-07-09T07:28:42.686Z,21.11
2017-07-09T07:31:11.038Z,21.19
2017-07-09T07:33:39.377Z,21.28
2017-07-09T07:36:08.773Z,21.39
2017-07-09T07:38:37.109Z,21.31
2017-07-09T07:41:05.441Z,21.38
2017-07-09T07:43:34.238Z,21.30
2017-07-09T07:46:02.582Z,21.28
2017-07-09T07:48:30.916Z,21.34
2017-07-09T07:50:59.723Z,21.21
2017-07-09T07:53:28.065Z,21.58
2017-07-09T07:55:56.408Z,21.70
2017-07-09T07:58:25.030Z,21.95
2017-07-09T08:00:53.383Z,22.25
2017-07-09T08:03:21.724Z,22.01
2017-07-09T08:05:50.346Z,21.96
2017-07-09T08:08:18.686Z,22.24
2017-07-09T08:10:47.014Z,22.41
2017-07-09T08:13:15.766Z,22.36
2017-07-09T08:15:44.101Z,22.55
2017-07-09T08:18:12.457Z,22.71
2017-07-09T08:20:41.088Z,22.97
2017-07-09T08:23:09.414Z,23.08
2017-07-09T08:25:37.846Z,23.21
2017-07-09T08:28:06.706Z,23.01
2017-07-09T08:30:35.039Z,22.79
2017-07-09T08:33:03.375Z,22.76
2017-07-09T08:35:32.102Z,22.90
2017-07-09T08:38:00.464Z,23.06
2017-07-09T08:40:28.801Z,23.35
2017-07-09T08:42:57.576Z,23.38
2017-07-09T08:45:25.908Z,23.40
2017-07-09T08:47:54.241Z,23.52
2017-07-09T08:50:23.181Z,23.51
2017-07-09T08:52:51.526Z,23.74
2017-07-09T08:55:19.859Z,23.94
2017-07-09T08:57:48.531Z,24.09
2017-07-09T09:00:16.885Z,24.00
2017-07-09T09:02:45.233Z,23.93
2017-07-09T09:05:13.926Z,24.00
2017-07-09T09:07:42.240Z,23.95
2017-07-09T09:10:10.589Z,24.18
2017-07-09T09:12:39.237Z,24.30
2017-07-09T09:15:07.575Z,24.31
2017-07-09T09:17:35.918Z,24.24
2017-07-09T09:20:05.030Z,24.65
2017-07-09T09:22:33.370Z,24.57
2017-07-09T09:25:02.545Z,24.73
2017-07-09T09:27:31.230Z,24.85
2017-07-09T09:29:59.588Z,25.12
2017-07-09T09:32:27.965Z,25.15
2017-07-09T09:34:56.589Z,25.23
2017-07-09T09:37:24.932Z,25.42
2017-07-09T09:39:53.276Z,25.42
2017-07-09T09:42:22.071Z,24.77
2017-07-09T09:44:50.434Z,24.87
2017-07-09T09:47:18.811Z,24.48
2017-07-09T09:49:48.239Z,24.53
2017-07-09T09:52:16.586Z,23.95
2017-07-09T09:54:45.709Z,24.18
2017-07-09T09:57:14.358Z,24.18
2017-07-09T09:59:42.682Z,24.67
2017-07-09T10:02:11.032Z,24.94
2017-07-09T10:04:39.899Z,25.39
2017-07-09T10:07:08.237Z,25.84
2017-07-09T10:09:36.639Z,26.03
2017-07-09T10:12:05.273Z,26.31
2017-07-09T10:14:33.597Z,25.89
2017-07-09T10:17:01.978Z,25.53
2017-07-09T10:19:30.647Z,25.42
2017-07-09T10:21:58.978Z,25.72
2017-07-09T10:24:27.348Z,26.10
2017-07-09T10:26:57.303Z,25.98
2017-07-09T10:29:25.646Z,25.89
2017-07-09T10:31:54.034Z,26.47
2017-07-09T10:34:22.661Z,26.53
2017-07-09T10:36:51.022Z,26.08
2017-07-09T10:39:19.446Z,25.90
2017-07-09T10:41:48.120Z,25.98
2017-07-09T10:44:16.452Z,25.81
2017-07-09T10:46:44.988Z,26.17
2017-07-09T10:49:13.718Z,25.95
2017-07-09T10:51:42.070Z,25.42
2017-07-09T10:54:10.449Z,25.75
2017-07-09T10:56:39.072Z,25.73
2017-07-09T10:59:07.459Z,25.88
2017-07-09T11:01:36.642Z,26.48
2017-07-09T11:04:05.266Z,26.94
2017-07-09T11:06:33.672Z,27.48
2017-07-09T11:09:02.013Z,27.84
2017-07-09T11:11:30.730Z,28.03
2017-07-09T11:13:59.062Z,27.24
2017-07-09T11:16:27.458Z,27.21
2017-07-09T11:18:56.124Z,27.21
2017-07-09T11:21:24.484Z,26.94
2017-07-09T11:23:52.843Z,27.24
2017-07-09T11:26:21.714Z,27.52
2017-07-09T11:28:50.104Z,27.69
2017-07-09T11:31:18.434Z,27.69
2017-07-09T11:33:47.547Z,28.02
2017-07-09T11:36:15.928Z,28.63
2017-07-09T11:38:44.250Z,28.64
2017-07-09T11:41:12.925Z,28.52
2017-07-09T11:43:41.310Z,28.79
2017-07-09T11:46:09.643Z,29.23
2017-07-09T11:48:38.271Z,29.52
2017-07-09T11:51:06.623Z,29.20
2017-07-09T11:53:34.964Z,28.95
2017-07-09T11:56:03.815Z,29.07
2017-07-09T11:58:32.182Z,29.38
2017-07-09T12:01:00.535Z,29.77
2017-07-09T12:03:29.324Z,29.90
2017-07-09T12:05:57.664Z,30.07
2017-07-09T12:08:26.017Z,30.04
2017-07-09T12:10:54.763Z,29.72
2017-07-09T12:13:23.095Z,29.84
2017-07-09T12:15:51.454Z,30.18
2017-07-09T12:18:20.265Z,29.80
2017-07-09T12:20:48.611Z,29.32
2017-07-09T12:23:16.946Z,29.72
2017-07-09T12:25:45.683Z,30.12
2017-07-09T12:28:14.014Z,30.42
2017-07-09T12:30:42.323Z,30.38
2017-07-09T12:33:11.084Z,30.03
2017-07-09T12:35:39.493Z,29.04
2017-07-09T12:38:07.845Z,29.28
2017-07-09T12:40:36.955Z,29.87
2017-07-09T12:43:05.301Z,30.08
2017-07-09T12:45:33.638Z,30.31
2017-07-09T12:48:02.275Z,30.18
2017-07-09T12:50:30.622Z,30.11
2017-07-09T12:52:58.954Z,30.49
2017-07-09T12:55:27.600Z,30.74
2017-07-09T12:57:55.947Z,30.51
2017-07-09T13:00:24.302Z,30.32
2017-07-09T13:02:52.992Z,30.67
2017-07-09T13:05:21.348Z,30.47
2017-07-09T13:07:49.687Z,30.50
2017-07-09T13:10:18.346Z,30.63
2017-07-09T13:12:46.701Z,30.90
2017-07-09T13:15:15.817Z,30.31
2017-07-09T13:17:44.478Z,30.21
2017-07-09T13:20:13.613Z,30.53
2017-07-09T13:22:41.943Z,30.69
2017-07-09T13:25:10.928Z,30.00
2017-07-09T13:27:39.284Z,30.22
2017-07-09T13:30:07.633Z,30.49
2017-07-09T13:32:36.394Z,30.67
2017-07-09T13:35:04.751Z,30.81
2017-07-09T13:37:33.087Z,31.14
2017-07-09T13:40:01.716Z,31.11
2017-07-09T13:42:30.064Z,31.06
2017-07-09T13:44:58.411Z,30.87
2017-07-09T13:47:27.259Z,31.31
2017-07-09T13:49:55.608Z,31.48
2017-07-09T13:52:23.941Z,31.06
2017-07-09T13:54:52.602Z,30.83
2017-07-09T13:57:20.957Z,30.65
2017-07-09T13:59:49.430Z,30.50
2017-07-09T14:02:18.102Z,29.93
2017-07-09T14:04:46.437Z,30.07
2017-07-09T14:07:14.779Z,30.59
2017-07-09T14:09:43.737Z,30.08
2017-07-09T14:12:12.072Z,30.07
2017-07-09T14:14:40.428Z,30.77
2017-07-09T14:17:09.106Z,29.99
2017-07-09T14:19:37.457Z,29.55
2017-07-09T14:22:05.802Z,29.58
2017-07-09T14:24:34.491Z,29.70
2017-07-09T14:27:02.824Z,29.22
2017-07-09T14:29:31.198Z,29.85
2017-07-09T14:32:00.027Z,30.03
2017-07-09T14:34:28.373Z,30.28
2017-07-09T14:36:56.720Z,29.97
2017-07-09T14:39:26.102Z,29.24
2017-07-09T14:41:54.457Z,29.87
2017-07-09T14:44:22.806Z,30.34
2017-07-09T14:46:51.524Z,30.25
2017-07-09T14:49:19.859Z,30.16
2017-07-09T14:51:48.202Z,29.27
2017-07-09T14:54:16.875Z,30.06
2017-07-09T14:56:45.201Z,30.10
2017-07-09T14:59:13.536Z,29.85
2017-07-09T15:01:42.469Z,29.84
2017-07-09T15:04:10.838Z,30.05
2017-07-09T15:06:39.937Z,30.25
2017-07-09T15:09:08.874Z,30.79
2017-07-09T15:11:37.216Z,30.68
2017-07-09T15:14:05.550Z,30.00
2017-07-09T15:16:34.442Z,30.09
2017-07-09T15:19:02.794Z,30.07
2017-07-09T15:21:31.175Z,30.45
2017-07-09T15:23:59.818Z,30.74
2017-07-09T15:26:28.159Z,30.54
2017-07-09T15:28:56.525Z,30.26
2017-07-09T15:31:25.291Z,30.18
2017-07-09T15:33:53.620Z,29.86
2017-07-09T15:36:21.959Z,29.92
2017-07-09T15:38:50.918Z,29.92
2017-07-09T15:41:19.256Z,29.76
2017-07-09T15:43:47.602Z,29.49
2017-07-09T15:46:16.288Z,29.52
2017-07-09T15:48:44.627Z,29.57
2017-07-09T15:51:12.960Z,29.66
2017-07-09T15:53:41.603Z,29.70
2017-07-09T15:56:10.901Z,29.97
2017-07-09T15:58:39.351Z,29.90
2017-07-09T16:01:08.507Z,29.80
2017-07-09T16:03:36.847Z,30.02
2017-07-09T16:06:05.948Z,29.86
2017-07-09T16:08:35.586Z,29.84
2017-07-09T16:11:03.952Z,29.71
2017-07-09T16:13:32.308Z,29.80
2017-07-09T16:16:00.937Z,29.85
2017-07-09T16:18:29.278Z,29.98
2017-07-09T16:20:57.613Z,29.89
2017-07-09T16:23:26.865Z,29.93
2017-07-09T16:25:55.186Z,29.70
2017-07-09T16:28:23.509Z,29.75
2017-07-09T16:30:53.143Z,29.71
2017-07-09T16:33:21.484Z,29.85
2017-07-09T16:35:49.835Z,29.92
2017-07-09T16:38:18.577Z,29.47
2017-07-09T16:40:46.910Z,29.18
2017-07-09T16:43:15.230Z,29.15
2017-07-09T16:45:44.085Z,29.24
2017-07-09T16:48:12.459Z,29.18
2017-07-09T16:50:40.799Z,29.11
2017-07-09T16:53:09.538Z,29.30
2017-07-09T16:55:37.871Z,29.22
2017-07-09T16:58:06.205Z,29.11
2017-07-09T17:00:34.916Z,29.01
2017-07-09T17:03:03.268Z,28.76
2017-07-09T17:05:31.595Z,28.46
2017-07-09T17:08:00.485Z,28.45
2017-07-09T17:10:28.843Z,27.81
2017-07-09T17:12:57.177Z,27.62
2017-07-09T17:15:27.036Z,27.55
2017-07-09T17:17:55.388Z,27.94
2017-07-09T17:20:24.490Z,28.18
2017-07-09T17:22:53.884Z,28.24
2017-07-09T17:25:22.221Z,28.51
2017-07-09T17:27:50.576Z,28.46
2017-07-09T17:30:19.527Z,28.18
2017-07-09T17:32:47.937Z,28.25
2017-07-09T17:35:17.048Z,28.18
2017-07-09T17:37:45.731Z,28.13
2017-07-09T17:40:14.072Z,28.33
2017-07-09T17:42:42.403Z,28.04
2017-07-09T17:45:11.278Z,28.01
2017-07-09T17:47:39.633Z,27.98
2017-07-09T17:50:08.738Z,28.15
2017-07-09T17:52:38.276Z,27.94
2017-07-09T17:55:06.611Z,27.42
2017-07-09T17:57:34.970Z,27.54
2017-07-09T18:00:03.608Z,27.61
2017-07-09T18:02:31.938Z,27.75
2017-07-09T18:05:00.268Z,27.82
2017-07-09T18:07:28.903Z,27.74
2017-07-09T18:09:57.223Z,27.90
2017-07-09T18:12:25.567Z,27.76
2017-07-09T18:14:54.505Z,27.73
2017-07-09T18:17:22.869Z,27.71
2017-07-09T18:19:51.219Z,27.60
2017-07-09T18:22:19.893Z,27.55
2017-07-09T18:24:48.228Z,27.58
2017-07-09T18:27:16.558Z,27.38
2017-07-09T18:29:45.239Z,27.30
2017-07-09T18:32:13.594Z,27.38
2017-07-09T18:34:41.928Z,27.33
2017-07-09T18:37:10.825Z,27.32
2017-07-09T18:39:39.148Z,27.42
2017-07-09T18:42:07.496Z,27.27
2017-07-09T18:44:36.283Z,27.27
2017-07-09T18:47:04.633Z,27.15
2017-07-09T18:49:33.734Z,27.19
2017-07-09T18:52:02.538Z,27.02
2017-07-09T18:54:30.882Z,27.09
2017-07-09T18:56:59.274Z,26.91
2017-07-09T18:59:28.034Z,27.02
2017-07-09T19:01:56.381Z,26.94
2017-07-09T19:04:24.760Z,26.87
2017-07-09T19:06:53.625Z,26.88
2017-07-09T19:09:21.996Z,26.58
2017-07-09T19:11:51.095Z,26.48
2017-07-09T19:14:20.713Z,26.49
2017-07-09T19:16:49.073Z,26.53
2017-07-09T19:19:17.409Z,26.51
2017-07-09T19:21:46.572Z,26.45
2017-07-09T19:24:14.936Z,26.19
2017-07-09T19:26:44.060Z,26.09
2017-07-09T19:29:12.701Z,25.99
2017-07-09T19:31:41.814Z,25.82
2017-07-09T19:34:10.166Z,25.64
2017-07-09T19:36:38.871Z,25.55
2017-07-09T19:39:07.212Z,25.66
2017-07-09T19:41:35.542Z,25.45
2017-07-09T19:44:04.314Z,25.40
2017-07-09T19:46:32.747Z,25.36
2017-07-09T19:49:01.103Z,25.34
2017-07-09T19:51:29.743Z,25.24
2017-07-09T19:53:58.088Z,25.35
2017-07-09T19:56:26.466Z,25.21
2017-07-09T19:58:55.463Z,25.17
2017-07-09T20:01:23.805Z,25.28
2017-07-09T20:03:52.156Z,25.41
2017-07-09T20:06:21.587Z,25.35
2017-07-09T20:08:50.713Z,25.36
2017-07-09T20:11:19.051Z,25.20
2017-07-09T20:13:47.685Z,25.10
2017-07-09T20:16:16.008Z,25.02
2017-07-09T20:18:44.342Z,24.89
2017-07-09T20:21:13.011Z,24.88
2017-07-09T20:23:41.356Z,24.69
2017-07-09T20:26:09.690Z,24.60
2017-07-09T20:28:38.479Z,24.71
2017-07-09T20:31:06.848Z,24.89
2017-07-09T20:33:35.199Z,24.91
2017-07-09T20:36:03.849Z,24.88
2017-07-09T20:38:32.214Z,24.88
2017-07-09T20:41:00.544Z,24.71
2017-07-09T20:43:29.529Z,24.56
2017-07-09T20:45:57.857Z,24.67
2017-07-09T20:48:26.202Z,24.61
2017-07-09T20:50:55.073Z,24.53
2017-07-09T20:53:23.390Z,24.42
2017-07-09T20:55:51.754Z,24.19
2017-07-09T20:58:20.435Z,24.25
2017-07-09T21:00:48.779Z,24.37
2017-07-09T21:03:17.149Z,24.47
2017-07-09T21:05:45.792Z,24.41
2017-07-09T21:08:14.165Z,24.43
2017-07-09T21:10:42.493Z,24.39
2017-07-09T21:13:11.331Z,24.39
2017-07-09T21:15:39.688Z,24.35
2017-07-09T21:18:08.820Z,24.33
2017-07-09T21:20:37.579Z,24.30
2017-07-09T21:23:06.215Z,24.27
2017-07-09T21:25:34.563Z,24.16
2017-07-09T21:28:03.272Z,24.00
2017-07-09T21:30:31.599Z,24.04
2017-07-09T21:33:00.724Z,23.95
2017-07-09T21:35:29.703Z,23.98
2017-07-09T21:37:58.114Z,24.00
2017-07-09T21:40:26.454Z,23.86
2017-07-09T21:42:55.105Z,23.77
2017-07-09T21:45:23.453Z,23.81
2017-07-09T21:47:51.798Z,23.74
2017-07-09T21:50:21.211Z,23.70
2017-07-09T21:52:49.548Z,23.71
2017-07-09T21:55:17.878Z,23.58
2017-07-09T21:57:46.828Z,23.65
2017-07-09T22:00:15.195Z,23.47
2017-07-09T22:02:43.550Z,23.33
2017-07-09T22:05:12.224Z,23.39
2017-07-09T22:07:40.573Z,23.30
2017-07-09T22:10:08.908Z,23.34
2017-07-09T22:12:37.619Z,23.31
2017-07-09T22:15:05.989Z,23.06
2017-07-09T22:17:34.330Z,23.11
2017-07-09T22:20:03.104Z,23.14
2017-07-09T22:22:31.458Z,23.07
2017-07-09T22:25:00.111Z,23.11
2017-07-09T22:27:28.804Z,23.15
2017-07-09T22:29:57.156Z,23.03
2017-07-09T22:32:25.516Z,22.86
2017-07-09T22:34:54.323Z,22.85
2017-07-09T22:37:22.683Z,22.87
2017-07-09T22:39:51.072Z,22.93
2017-07-09T22:42:19.958Z,22.98
2017-07-09T22:44:48.338Z,22.76
2017-07-09T22:47:16.693Z,22.79
2017-07-09T22:49:45.603Z,22.79
2017-07-09T22:52:13.917Z,22.79
2017-07-09T22:54:42.234Z,22.71
2017-07-09T22:57:15.318Z,22.63
2017-07-09T22:59:43.688Z,22.64
2017-07-09T23:02:12.128Z,22.66
2017-07-09T23:04:40.987Z,22.67
2017-07-09T23:07:09.331Z,22.64
2017-07-09T23:09:37.655Z,22.74
2017-07-09T23:12:06.372Z,22.62
2017-07-09T23:14:34.706Z,22.51
2017-07-09T23:17:03.027Z,22.34
2017-07-09T23:19:31.889Z,22.48
2017-07-09T23:22:00.236Z,22.50
2017-07-09T23:24:28.578Z,22.48
2017-07-09T23:26:57.240Z,22.41
2017-07-09T23:29:25.608Z,22.42
2017-07-09T23:31:53.939Z,22.28
2017-07-09T23:34:22.654Z,22.17
2017-07-09T23:36:50.996Z,22.09
2017-07-09T23:39:19.326Z,22.01
2017-07-09T23:41:48.213Z,22.05
2017-07-09T23:44:16.564Z,22.06
2017-07-09T23:46:44.894Z,22.07
2017-07-09T23:49:13.547Z,22.00
2017-07-09T23:51:42.657Z,21.98
2017-07-09T23:54:10.987Z,21.90
2017-07-09T23:56:39.636Z,21.98
2017-07-09T23:59:08.214Z,21.85
